sensor_id;sensor_type;location;lat;lon;timestamp;P1;durP1;ratioP1;P2;durP2;ratioP2
5813;SDS011;2933;52.302;8.134;2023-01-09T00:03:33;1.10;;;1.10;;
5813;SDS011;2933;52.302;8.134;2023-01-09T00:08:34;1.20;;;1.20;;
5813;SDS011;2933;52.302;8.134;2023-01-09T00:13:36;3.23;;;1.20;;
5813;SDS011;2933;52.302;8.134;2023-01-09T00:18:39;1.27;;;1.10;;
5813;SDS011;2933;52.302;8.134;2023-01-09T00:23:41;1.13;;;1.03;;
5813;SDS011;2933;52.302;8.134;2023-01-09T00:28:42;1.13;;;1.13;;
5813;SDS011;2933;52.302;8.134;2023-01-09T00:33:47;4.20;;;1.30;;
5813;SDS011;2933;52.302;8.134;2023-01-09T00:38:56;1.83;;;0.97;;
5813;SDS011;2933;52.302;8.134;2023-01-09T00:44:00;0.97;;;0.97;;
5813;SDS011;2933;52.302;8.134;2023-01-09T00:49:06;1.93;;;1.50;;
5813;SDS011;2933;52.302;8.134;2023-01-09T00:54:09;1.13;;;1.13;;
5813;SDS011;2933;52.302;8.134;2023-01-09T00:59:13;5.33;;;1.70;;
5813;SDS011;2933;52.302;8.134;2023-01-09T01:04:15;1.57;;;1.47;;
5813;SDS011;2933;52.302;8.134;2023-01-09T01:09:34;3.50;;;1.80;;
5813;SDS011;2933;52.302;8.134;2023-01-09T01:14:36;1.20;;;1.20;;
5813;SDS011;2933;52.302;8.134;2023-01-09T01:19:40;1.30;;;1.20;;
5813;SDS011;2933;52.302;8.134;2023-01-09T01:24:45;1.50;;;1.20;;
5813;SDS011;2933;52.302;8.134;2023-01-09T01:29:46;1.57;;;1.47;;
5813;SDS011;2933;52.302;8.134;2023-01-09T01:34:49;1.30;;;1.30;;
5813;SDS011;2933;52.302;8.134;2023-01-09T01:39:51;2.63;;;1.67;;
5813;SDS011;2933;52.302;8.134;2023-01-09T01:44:55;2.80;;;1.70;;
5813;SDS011;2933;52.302;8.134;2023-01-09T01:50:01;1.60;;;1.50;;
5813;SDS011;2933;52.302;8.134;2023-01-09T01:55:08;1.70;;;1.60;;
5813;SDS011;2933;52.302;8.134;2023-01-09T02:00:10;2.60;;;1.80;;
5813;SDS011;2933;52.302;8.134;2023-01-09T02:05:14;6.27;;;1.90;;
5813;SDS011;2933;52.302;8.134;2023-01-09T02:10:16;2.07;;;1.97;;
5813;SDS011;2933;52.302;8.134;2023-01-09T02:15:18;1.60;;;1.50;;
5813;SDS011;2933;52.302;8.134;2023-01-09T02:20:35;2.20;;;1.40;;
5813;SDS011;2933;52.302;8.134;2023-01-09T02:25:52;1.30;;;1.30;;
5813;SDS011;2933;52.302;8.134;2023-01-09T02:31:12;1.60;;;1.50;;
5813;SDS011;2933;52.302;8.134;2023-01-09T02:36:23;1.30;;;1.30;;
5813;SDS011;2933;52.302;8.134;2023-01-09T02:41:32;1.73;;;1.63;;
5813;SDS011;2933;52.302;8.134;2023-01-09T02:46:39;1.50;;;1.50;;
5813;SDS011;2933;52.302;8.134;2023-01-09T02:51:48;1.30;;;1.30;;
5813;SDS011;2933;52.302;8.134;2023-01-09T02:56:56;1.30;;;1.23;;
5813;SDS011;2933;52.302;8.134;2023-01-09T03:02:09;1.17;;;1.13;;
5813;SDS011;2933;52.302;8.134;2023-01-09T03:07:24;5.80;;;1.80;;
5813;SDS011;2933;52.302;8.134;2023-01-09T03:12:30;1.50;;;1.40;;
5813;SDS011;2933;52.302;8.134;2023-01-09T03:17:35;3.07;;;1.70;;
5813;SDS011;2933;52.302;8.134;2023-01-09T03:22:39;1.77;;;1.67;;
5813;SDS011;2933;52.302;8.134;2023-01-09T03:27:46;1.33;;;1.23;;
5813;SDS011;2933;52.302;8.134;2023-01-09T03:32:49;1.10;;;1.10;;
5813;SDS011;2933;52.302;8.134;2023-01-09T03:37:51;1.47;;;1.37;;
5813;SDS011;2933;52.302;8.134;2023-01-09T03:42:52;1.97;;;1.53;;
5813;SDS011;2933;52.302;8.134;2023-01-09T03:47:55;3.43;;;1.80;;
5813;SDS011;2933;52.302;8.134;2023-01-09T03:52:57;3.77;;;2.20;;
5813;SDS011;2933;52.302;8.134;2023-01-09T03:57:59;1.83;;;1.73;;
5813;SDS011;2933;52.302;8.134;2023-01-09T04:03:01;2.00;;;1.90;;
5813;SDS011;2933;52.302;8.134;2023-01-09T04:08:03;2.17;;;1.60;;
5813;SDS011;2933;52.302;8.134;2023-01-09T04:13:05;2.10;;;1.57;;
5813;SDS011;2933;52.302;8.134;2023-01-09T04:18:08;4.60;;;2.10;;
5813;SDS011;2933;52.302;8.134;2023-01-09T04:23:10;4.47;;;1.97;;
5813;SDS011;2933;52.302;8.134;2023-01-09T04:28:12;2.27;;;2.07;;
5813;SDS011;2933;52.302;8.134;2023-01-09T04:33:15;2.40;;;2.20;;
5813;SDS011;2933;52.302;8.134;2023-01-09T04:38:16;4.70;;;2.50;;
5813;SDS011;2933;52.302;8.134;2023-01-09T04:43:18;3.73;;;2.93;;
5813;SDS011;2933;52.302;8.134;2023-01-09T04:48:21;6.00;;;3.00;;
5813;SDS011;2933;52.302;8.134;2023-01-09T04:53:23;2.80;;;2.70;;
5813;SDS011;2933;52.302;8.134;2023-01-09T04:58:25;4.67;;;3.50;;
5813;SDS011;2933;52.302;8.134;2023-01-09T05:03:28;3.53;;;3.20;;
5813;SDS011;2933;52.302;8.134;2023-01-09T05:08:29;4.47;;;3.37;;
5813;SDS011;2933;52.302;8.134;2023-01-09T05:13:31;8.37;;;3.70;;
5813;SDS011;2933;52.302;8.134;2023-01-09T05:18:34;6.90;;;3.53;;
5813;SDS011;2933;52.302;8.134;2023-01-09T05:23:36;5.50;;;3.97;;
5813;SDS011;2933;52.302;8.134;2023-01-09T05:28:37;5.50;;;4.10;;
5813;SDS011;2933;52.302;8.134;2023-01-09T05:33:40;6.60;;;3.23;;
5813;SDS011;2933;52.302;8.134;2023-01-09T05:38:42;4.37;;;3.83;;
5813;SDS011;2933;52.302;8.134;2023-01-09T05:43:43;5.87;;;3.93;;
5813;SDS011;2933;52.302;8.134;2023-01-09T05:48:46;9.33;;;4.07;;
5813;SDS011;2933;52.302;8.134;2023-01-09T05:53:48;8.70;;;4.00;;
5813;SDS011;2933;52.302;8.134;2023-01-09T05:58:50;8.87;;;4.20;;
5813;SDS011;2933;52.302;8.134;2023-01-09T06:03:53;12.80;;;4.83;;
5813;SDS011;2933;52.302;8.134;2023-01-09T06:08:54;14.23;;;4.60;;
5813;SDS011;2933;52.302;8.134;2023-01-09T06:13:56;10.03;;;3.67;;
5813;SDS011;2933;52.302;8.134;2023-01-09T06:18:58;3.90;;;3.13;;
5813;SDS011;2933;52.302;8.134;2023-01-09T06:24:00;4.03;;;3.47;;
5813;SDS011;2933;52.302;8.134;2023-01-09T06:29:02;5.97;;;3.23;;
5813;SDS011;2933;52.302;8.134;2023-01-09T06:34:05;6.73;;;3.80;;
5813;SDS011;2933;52.302;8.134;2023-01-09T06:39:07;8.00;;;3.63;;
5813;SDS011;2933;52.302;8.134;2023-01-09T06:44:09;8.57;;;3.80;;
5813;SDS011;2933;52.302;8.134;2023-01-09T06:49:12;17.33;;;4.20;;
5813;SDS011;2933;52.302;8.134;2023-01-09T06:54:13;7.00;;;4.70;;
5813;SDS011;2933;52.302;8.134;2023-01-09T06:59:15;6.20;;;4.20;;
5813;SDS011;2933;52.302;8.134;2023-01-09T07:04:18;7.03;;;4.60;;
5813;SDS011;2933;52.302;8.134;2023-01-09T07:09:20;5.57;;;4.20;;
5813;SDS011;2933;52.302;8.134;2023-01-09T07:14:22;11.63;;;4.63;;
5813;SDS011;2933;52.302;8.134;2023-01-09T07:19:25;14.80;;;5.17;;
5813;SDS011;2933;52.302;8.134;2023-01-09T07:24:26;8.77;;;5.57;;
5813;SDS011;2933;52.302;8.134;2023-01-09T07:29:28;10.33;;;5.40;;
5813;SDS011;2933;52.302;8.134;2023-01-09T07:34:31;11.90;;;5.20;;
5813;SDS011;2933;52.302;8.134;2023-01-09T07:39:33;7.43;;;5.07;;
5813;SDS011;2933;52.302;8.134;2023-01-09T07:44:34;9.47;;;5.00;;
5813;SDS011;2933;52.302;8.134;2023-01-09T07:49:37;6.23;;;5.23;;
5813;SDS011;2933;52.302;8.134;2023-01-09T07:54:39;5.57;;;4.03;;
5813;SDS011;2933;52.302;8.134;2023-01-09T07:59:40;4.73;;;3.87;;
5813;SDS011;2933;52.302;8.134;2023-01-09T08:04:43;11.77;;;4.33;;
5813;SDS011;2933;52.302;8.134;2023-01-09T08:09:45;7.43;;;4.40;;
5813;SDS011;2933;52.302;8.134;2023-01-09T08:14:46;11.10;;;4.80;;
5813;SDS011;2933;52.302;8.134;2023-01-09T08:19:49;13.07;;;4.93;;
5813;SDS011;2933;52.302;8.134;2023-01-09T08:24:51;10.00;;;4.10;;
5813;SDS011;2933;52.302;8.134;2023-01-09T08:29:52;4.67;;;4.03;;
5813;SDS011;2933;52.302;8.134;2023-01-09T08:34:55;4.07;;;3.37;;
5813;SDS011;2933;52.302;8.134;2023-01-09T08:39:57;5.70;;;2.90;;
5813;SDS011;2933;52.302;8.134;2023-01-09T08:44:58;12.60;;;3.83;;
5813;SDS011;2933;52.302;8.134;2023-01-09T08:50:19;2.93;;;2.80;;
5813;SDS011;2933;52.302;8.134;2023-01-09T08:55:21;5.83;;;3.30;;
5813;SDS011;2933;52.302;8.134;2023-01-09T09:00:23;11.47;;;2.90;;
5813;SDS011;2933;52.302;8.134;2023-01-09T09:05:27;4.77;;;2.77;;
5813;SDS011;2933;52.302;8.134;2023-01-09T09:10:30;9.10;;;2.60;;
5813;SDS011;2933;52.302;8.134;2023-01-09T09:15:31;4.60;;;2.80;;
5813;SDS011;2933;52.302;8.134;2023-01-09T09:20:36;4.00;;;2.50;;
5813;SDS011;2933;52.302;8.134;2023-01-09T09:25:39;8.00;;;2.07;;
5813;SDS011;2933;52.302;8.134;2023-01-09T09:30:40;3.57;;;2.17;;
5813;SDS011;2933;52.302;8.134;2023-01-09T09:35:44;1.73;;;1.63;;
5813;SDS011;2933;52.302;8.134;2023-01-09T09:40:48;3.47;;;1.60;;
5813;SDS011;2933;52.302;8.134;2023-01-09T09:46:04;5.23;;;1.70;;
5813;SDS011;2933;52.302;8.134;2023-01-09T09:56:55;3.50;;;1.50;;
5813;SDS011;2933;52.302;8.134;2023-01-09T10:01:58;5.30;;;1.80;;
5813;SDS011;2933;52.302;8.134;2023-01-09T10:07:06;4.47;;;1.50;;
5813;SDS011;2933;52.302;8.134;2023-01-09T10:12:19;2.37;;;1.27;;
5813;SDS011;2933;52.302;8.134;2023-01-09T10:17:41;2.83;;;1.93;;
5813;SDS011;2933;52.302;8.134;2023-01-09T10:22:56;11.93;;;1.73;;
5813;SDS011;2933;52.302;8.134;2023-01-09T10:28:12;4.63;;;1.50;;
5813;SDS011;2933;52.302;8.134;2023-01-09T10:33:28;5.33;;;2.43;;
5813;SDS011;2933;52.302;8.134;2023-01-09T10:38:42;7.20;;;1.87;;
5813;SDS011;2933;52.302;8.134;2023-01-09T10:43:48;3.50;;;1.40;;
5813;SDS011;2933;52.302;8.134;2023-01-09T10:48:53;2.00;;;1.67;;
5813;SDS011;2933;52.302;8.134;2023-01-09T10:54:00;1.93;;;1.60;;
5813;SDS011;2933;52.302;8.134;2023-01-09T10:59:03;2.20;;;2.07;;
5813;SDS011;2933;52.302;8.134;2023-01-09T11:04:08;6.43;;;2.43;;
5813;SDS011;2933;52.302;8.134;2023-01-09T11:09:21;6.27;;;2.33;;
5813;SDS011;2933;52.302;8.134;2023-01-09T11:14:23;4.33;;;2.43;;
5813;SDS011;2933;52.302;8.134;2023-01-09T11:19:30;5.20;;;2.57;;
5813;SDS011;2933;52.302;8.134;2023-01-09T11:24:34;3.40;;;3.10;;
5813;SDS011;2933;52.302;8.134;2023-01-09T11:29:35;5.00;;;3.27;;
5813;SDS011;2933;52.302;8.134;2023-01-09T11:34:37;3.23;;;2.50;;
5813;SDS011;2933;52.302;8.134;2023-01-09T11:39:43;5.50;;;3.10;;
5813;SDS011;2933;52.302;8.134;2023-01-09T11:44:47;6.40;;;3.73;;
5813;SDS011;2933;52.302;8.134;2023-01-09T11:49:48;3.80;;;3.50;;
5813;SDS011;2933;52.302;8.134;2023-01-09T11:54:52;3.30;;;3.20;;
5813;SDS011;2933;52.302;8.134;2023-01-09T12:00:00;3.40;;;3.20;;
5813;SDS011;2933;52.302;8.134;2023-01-09T12:05:05;3.23;;;2.93;;
5813;SDS011;2933;52.302;8.134;2023-01-09T12:10:22;4.30;;;2.93;;
5813;SDS011;2933;52.302;8.134;2023-01-09T12:15:34;3.57;;;2.30;;
5813;SDS011;2933;52.302;8.134;2023-01-09T12:20:49;6.37;;;3.03;;
5813;SDS011;2933;52.302;8.134;2023-01-09T12:26:04;5.47;;;3.00;;
5813;SDS011;2933;52.302;8.134;2023-01-09T12:31:19;2.63;;;2.40;;
5813;SDS011;2933;52.302;8.134;2023-01-09T12:36:31;4.77;;;2.50;;
5813;SDS011;2933;52.302;8.134;2023-01-09T12:47:08;3.03;;;2.23;;
5813;SDS011;2933;52.302;8.134;2023-01-09T12:52:42;3.73;;;1.90;;
5813;SDS011;2933;52.302;8.134;2023-01-09T12:57:48;5.30;;;2.23;;
5813;SDS011;2933;52.302;8.134;2023-01-09T13:02:52;3.57;;;1.80;;
5813;SDS011;2933;52.302;8.134;2023-01-09T13:08:01;3.50;;;2.63;;
5813;SDS011;2933;52.302;8.134;2023-01-09T13:13:09;11.13;;;3.13;;
5813;SDS011;2933;52.302;8.134;2023-01-09T13:18:15;2.80;;;2.60;;
5813;SDS011;2933;52.302;8.134;2023-01-09T13:23:23;6.20;;;0.90;;
5813;SDS011;2933;52.302;8.134;2023-01-09T13:28:45;0.60;;;0.60;;
5813;SDS011;2933;52.302;8.134;2023-01-09T13:34:09;0.57;;;0.57;;
5813;SDS011;2933;52.302;8.134;2023-01-09T13:39:20;1.03;;;1.03;;
5813;SDS011;2933;52.302;8.134;2023-01-09T13:44:25;0.50;;;0.50;;
5813;SDS011;2933;52.302;8.134;2023-01-09T13:49:33;0.90;;;0.60;;
5813;SDS011;2933;52.302;8.134;2023-01-09T14:00:50;1.10;;;1.00;;
5813;SDS011;2933;52.302;8.134;2023-01-09T14:06:15;0.63;;;0.63;;
5813;SDS011;2933;52.302;8.134;2023-01-09T14:11:19;2.37;;;1.27;;
5813;SDS011;2933;52.302;8.134;2023-01-09T14:16:27;1.00;;;1.00;;
5813;SDS011;2933;52.302;8.134;2023-01-09T14:21:41;1.53;;;1.20;;
5813;SDS011;2933;52.302;8.134;2023-01-09T14:26:45;2.10;;;1.50;;
5813;SDS011;2933;52.302;8.134;2023-01-09T14:31:57;1.37;;;1.37;;
5813;SDS011;2933;52.302;8.134;2023-01-09T14:37:43;2.13;;;1.30;;
5813;SDS011;2933;52.302;8.134;2023-01-09T14:43:11;1.63;;;1.53;;
5813;SDS011;2933;52.302;8.134;2023-01-09T14:48:19;3.13;;;2.00;;
5813;SDS011;2933;52.302;8.134;2023-01-09T14:53:24;1.87;;;1.77;;
5813;SDS011;2933;52.302;8.134;2023-01-09T14:58:30;2.43;;;2.20;;
5813;SDS011;2933;52.302;8.134;2023-01-09T15:03:36;13.93;;;2.10;;
5813;SDS011;2933;52.302;8.134;2023-01-09T15:08:42;1.53;;;1.27;;
5813;SDS011;2933;52.302;8.134;2023-01-09T15:13:46;3.37;;;1.40;;
5813;SDS011;2933;52.302;8.134;2023-01-09T15:18:52;1.50;;;1.40;;
5813;SDS011;2933;52.302;8.134;2023-01-09T15:24:09;1.20;;;1.10;;
5813;SDS011;2933;52.302;8.134;2023-01-09T15:29:13;2.10;;;1.87;;
5813;SDS011;2933;52.302;8.134;2023-01-09T15:34:24;3.27;;;1.43;;
5813;SDS011;2933;52.302;8.134;2023-01-09T15:39:29;2.47;;;1.60;;
5813;SDS011;2933;52.302;8.134;2023-01-09T15:44:42;1.80;;;1.80;;
5813;SDS011;2933;52.302;8.134;2023-01-09T15:49:48;2.10;;;2.00;;
5813;SDS011;2933;52.302;8.134;2023-01-09T15:54:51;3.67;;;2.20;;
5813;SDS011;2933;52.302;8.134;2023-01-09T15:59:53;2.40;;;2.30;;
5813;SDS011;2933;52.302;8.134;2023-01-09T16:05:03;3.20;;;3.10;;
5813;SDS011;2933;52.302;8.134;2023-01-09T16:10:17;5.77;;;3.10;;
5813;SDS011;2933;52.302;8.134;2023-01-09T16:15:22;6.63;;;3.67;;
5813;SDS011;2933;52.302;8.134;2023-01-09T16:20:26;3.40;;;3.10;;
5813;SDS011;2933;52.302;8.134;2023-01-09T16:25:28;5.00;;;3.70;;
5813;SDS011;2933;52.302;8.134;2023-01-09T16:30:33;5.43;;;2.90;;
5813;SDS011;2933;52.302;8.134;2023-01-09T16:35:36;6.23;;;3.30;;
5813;SDS011;2933;52.302;8.134;2023-01-09T16:40:37;5.20;;;4.70;;
5813;SDS011;2933;52.302;8.134;2023-01-09T16:45:39;7.50;;;4.30;;
5813;SDS011;2933;52.302;8.134;2023-01-09T16:50:45;6.83;;;3.77;;
5813;SDS011;2933;52.302;8.134;2023-01-09T16:55:47;5.97;;;3.63;;
5813;SDS011;2933;52.302;8.134;2023-01-09T17:00:52;9.17;;;3.70;;
5813;SDS011;2933;52.302;8.134;2023-01-09T17:05:56;9.87;;;4.33;;
5813;SDS011;2933;52.302;8.134;2023-01-09T17:11:00;5.87;;;3.90;;
5813;SDS011;2933;52.302;8.134;2023-01-09T17:16:03;8.40;;;4.33;;
5813;SDS011;2933;52.302;8.134;2023-01-09T17:21:08;4.17;;;3.87;;
5813;SDS011;2933;52.302;8.134;2023-01-09T17:26:17;7.50;;;3.47;;
5813;SDS011;2933;52.302;8.134;2023-01-09T17:31:38;5.67;;;3.63;;
5813;SDS011;2933;52.302;8.134;2023-01-09T17:36:41;8.60;;;3.63;;
5813;SDS011;2933;52.302;8.134;2023-01-09T17:41:43;9.57;;;3.67;;
5813;SDS011;2933;52.302;8.134;2023-01-09T17:46:45;10.67;;;4.10;;
5813;SDS011;2933;52.302;8.134;2023-01-09T17:51:48;4.23;;;2.80;;
5813;SDS011;2933;52.302;8.134;2023-01-09T17:56:51;6.27;;;3.80;;
5813;SDS011;2933;52.302;8.134;2023-01-09T18:01:53;10.00;;;2.97;;
5813;SDS011;2933;52.302;8.134;2023-01-09T18:06:56;5.50;;;2.00;;
5813;SDS011;2933;52.302;8.134;2023-01-09T18:12:06;2.40;;;1.70;;
5813;SDS011;2933;52.302;8.134;2023-01-09T18:17:09;1.90;;;1.80;;
5813;SDS011;2933;52.302;8.134;2023-01-09T18:22:25;2.00;;;1.90;;
5813;SDS011;2933;52.302;8.134;2023-01-09T18:27:26;8.47;;;2.20;;
5813;SDS011;2933;52.302;8.134;2023-01-09T18:32:37;4.63;;;2.20;;
5813;SDS011;2933;52.302;8.134;2023-01-09T18:37:40;5.60;;;2.53;;
5813;SDS011;2933;52.302;8.134;2023-01-09T18:42:41;2.60;;;2.40;;
5813;SDS011;2933;52.302;8.134;2023-01-09T18:47:45;4.63;;;3.53;;
5813;SDS011;2933;52.302;8.134;2023-01-09T18:52:48;9.27;;;3.97;;
5813;SDS011;2933;52.302;8.134;2023-01-09T18:57:49;7.47;;;5.83;;
5813;SDS011;2933;52.302;8.134;2023-01-09T19:02:52;15.50;;;6.70;;
5813;SDS011;2933;52.302;8.134;2023-01-09T19:07:56;12.20;;;6.17;;
5813;SDS011;2933;52.302;8.134;2023-01-09T19:12:58;10.30;;;6.50;;
5813;SDS011;2933;52.302;8.134;2023-01-09T19:17:59;15.40;;;7.17;;
5813;SDS011;2933;52.302;8.134;2023-01-09T19:23:02;13.33;;;6.80;;
5813;SDS011;2933;52.302;8.134;2023-01-09T19:28:04;17.87;;;7.67;;
5813;SDS011;2933;52.302;8.134;2023-01-09T19:33:05;15.50;;;7.23;;
5813;SDS011;2933;52.302;8.134;2023-01-09T19:38:08;21.87;;;7.20;;
5813;SDS011;2933;52.302;8.134;2023-01-09T19:43:10;12.47;;;7.37;;
5813;SDS011;2933;52.302;8.134;2023-01-09T19:48:24;13.47;;;7.20;;
5813;SDS011;2933;52.302;8.134;2023-01-09T19:53:27;20.60;;;7.57;;
5813;SDS011;2933;52.302;8.134;2023-01-09T19:58:30;14.17;;;7.70;;
5813;SDS011;2933;52.302;8.134;2023-01-09T20:03:32;15.90;;;7.60;;
5813;SDS011;2933;52.302;8.134;2023-01-09T20:08:35;15.00;;;7.03;;
5813;SDS011;2933;52.302;8.134;2023-01-09T20:13:37;20.07;;;8.67;;
5813;SDS011;2933;52.302;8.134;2023-01-09T20:18:39;17.60;;;7.20;;
5813;SDS011;2933;52.302;8.134;2023-01-09T20:23:42;19.10;;;7.63;;
5813;SDS011;2933;52.302;8.134;2023-01-09T20:28:43;18.83;;;8.07;;
5813;SDS011;2933;52.302;8.134;2023-01-09T20:33:47;16.17;;;8.73;;
5813;SDS011;2933;52.302;8.134;2023-01-09T20:38:52;23.93;;;7.77;;
5813;SDS011;2933;52.302;8.134;2023-01-09T20:43:54;9.73;;;6.67;;
5813;SDS011;2933;52.302;8.134;2023-01-09T20:48:58;17.30;;;7.60;;
5813;SDS011;2933;52.302;8.134;2023-01-09T20:54:04;15.43;;;8.50;;
5813;SDS011;2933;52.302;8.134;2023-01-09T20:59:06;16.10;;;8.30;;
5813;SDS011;2933;52.302;8.134;2023-01-09T21:04:11;18.23;;;8.40;;
5813;SDS011;2933;52.302;8.134;2023-01-09T21:09:14;18.40;;;8.97;;
5813;SDS011;2933;52.302;8.134;2023-01-09T21:14:15;26.73;;;9.77;;
5813;SDS011;2933;52.302;8.134;2023-01-09T21:19:17;15.97;;;8.10;;
5813;SDS011;2933;52.302;8.134;2023-01-09T21:24:20;19.27;;;8.47;;
5813;SDS011;2933;52.302;8.134;2023-01-09T21:29:22;15.93;;;8.50;;
5813;SDS011;2933;52.302;8.134;2023-01-09T21:34:23;18.83;;;9.00;;
5813;SDS011;2933;52.302;8.134;2023-01-09T21:39:26;17.77;;;9.20;;
5813;SDS011;2933;52.302;8.134;2023-01-09T21:44:28;24.60;;;9.70;;
5813;SDS011;2933;52.302;8.134;2023-01-09T21:49:47;19.87;;;9.30;;
5813;SDS011;2933;52.302;8.134;2023-01-09T21:54:51;28.30;;;8.93;;
5813;SDS011;2933;52.302;8.134;2023-01-09T21:59:52;23.90;;;8.70;;
5813;SDS011;2933;52.302;8.134;2023-01-09T22:04:54;23.73;;;8.07;;
5813;SDS011;2933;52.302;8.134;2023-01-09T22:10:00;20.73;;;8.80;;
5813;SDS011;2933;52.302;8.134;2023-01-09T22:15:02;21.90;;;10.67;;
5813;SDS011;2933;52.302;8.134;2023-01-09T22:20:04;17.50;;;9.23;;
5813;SDS011;2933;52.302;8.134;2023-01-09T22:25:08;23.53;;;8.90;;
5813;SDS011;2933;52.302;8.134;2023-01-09T22:30:10;20.43;;;8.47;;
5813;SDS011;2933;52.302;8.134;2023-01-09T22:35:12;19.83;;;8.17;;
5813;SDS011;2933;52.302;8.134;2023-01-09T22:40:15;16.50;;;8.30;;
5813;SDS011;2933;52.302;8.134;2023-01-09T22:45:18;20.03;;;8.93;;
5813;SDS011;2933;52.302;8.134;2023-01-09T22:50:19;20.17;;;8.40;;
5813;SDS011;2933;52.302;8.134;2023-01-09T22:55:23;15.90;;;8.20;;
5813;SDS011;2933;52.302;8.134;2023-01-09T23:00:24;26.57;;;9.10;;
5813;SDS011;2933;52.302;8.134;2023-01-09T23:05:26;15.70;;;8.47;;
5813;SDS011;2933;52.302;8.134;2023-01-09T23:10:29;24.37;;;8.70;;
5813;SDS011;2933;52.302;8.134;2023-01-09T23:15:30;14.00;;;8.40;;
5813;SDS011;2933;52.302;8.134;2023-01-09T23:20:32;14.60;;;7.77;;
5813;SDS011;2933;52.302;8.134;2023-01-09T23:25:35;16.43;;;8.50;;
5813;SDS011;2933;52.302;8.134;2023-01-09T23:30:36;18.80;;;8.10;;
5813;SDS011;2933;52.302;8.134;2023-01-09T23:35:38;14.90;;;7.60;;
5813;SDS011;2933;52.302;8.134;2023-01-09T23:40:41;12.70;;;7.07;;
5813;SDS011;2933;52.302;8.134;2023-01-09T23:45:43;14.40;;;6.40;;
5813;SDS011;2933;52.302;8.134;2023-01-09T23:50:46;7.33;;;5.50;;
5813;SDS011;2933;52.302;8.134;2023-01-09T23:55:50;12.57;;;6.73;;
